createdAt,value
2024-05-09T00:00:15.473Z,8.10
2024-05-09T00:02:48.631Z,8.77
2024-05-09T00:05:19.554Z,8.60
2024-05-09T00:07:50.121Z,8.10
2024-05-09T00:10:32.602Z,8.40
2024-05-09T00:13:06.756Z,8.47
2024-05-09T00:15:37.511Z,8.30
2024-05-09T00:18:08.768Z,7.63
2024-05-09T00:20:41.204Z,8.57
2024-05-09T00:23:13.717Z,7.80
2024-05-09T00:25:47.502Z,8.17
2024-05-09T00:28:18.051Z,7.70
2024-05-09T00:30:48.487Z,7.80
2024-05-09T00:33:19.171Z,8.97
2024-05-09T00:35:50.646Z,8.03
2024-05-09T00:38:21.241Z,7.57
2024-05-09T00:40:54.367Z,7.53
2024-05-09T00:43:24.830Z,7.30
2024-05-09T00:45:56.957Z,7.90
2024-05-09T00:48:27.685Z,7.83
2024-05-09T00:50:58.657Z,7.63
2024-05-09T00:53:29.243Z,7.63
2024-05-09T00:56:02.489Z,8.03
2024-05-09T00:58:33.269Z,7.87
2024-05-09T01:01:05.057Z,7.40
2024-05-09T01:03:35.762Z,7.83
2024-05-09T01:06:06.481Z,7.73
2024-05-09T01:08:37.158Z,8.97
2024-05-09T01:11:10.555Z,8.00
2024-05-09T01:13:41.013Z,8.20
2024-05-09T01:16:11.469Z,8.47
2024-05-09T01:18:41.946Z,8.40
2024-05-09T01:21:12.525Z,8.50
2024-05-09T01:23:45.632Z,8.37
2024-05-09T01:26:16.160Z,7.70
2024-05-09T01:28:46.628Z,8.20
2024-05-09T01:31:17.061Z,7.40
2024-05-09T01:33:47.604Z,7.40
2024-05-09T01:36:18.136Z,8.20
2024-05-09T01:38:51.181Z,7.70
2024-05-09T01:41:21.687Z,8.00
2024-05-09T01:43:52.264Z,8.27
2024-05-09T01:46:22.741Z,8.10
2024-05-09T01:48:53.194Z,7.43
2024-05-09T01:51:23.736Z,7.80
2024-05-09T01:53:58.590Z,7.10
2024-05-09T01:56:29.090Z,6.30
2024-05-09T01:58:59.559Z,5.70
2024-05-09T02:01:30.049Z,6.10
2024-05-09T02:04:20.530Z,5.50
2024-05-09T02:06:51.164Z,6.07
2024-05-09T02:09:24.180Z,5.90
2024-05-09T02:11:54.784Z,5.33
2024-05-09T02:14:25.380Z,6.27
2024-05-09T02:16:55.912Z,6.73
2024-05-09T02:19:26.439Z,5.80
2024-05-09T02:21:56.900Z,5.20
2024-05-09T02:24:29.917Z,5.23
2024-05-09T02:27:00.363Z,5.20
2024-05-09T02:29:31.011Z,5.23
2024-05-09T02:32:01.639Z,5.53
2024-05-09T02:34:32.402Z,4.90
2024-05-09T02:37:02.965Z,5.13
2024-05-09T02:39:33.722Z,5.20
2024-05-09T02:42:04.110Z,5.20
2024-05-09T02:44:31.978Z,5.47
2024-05-09T02:47:02.479Z,5.80
2024-05-09T02:49:30.416Z,5.20
2024-05-09T02:52:00.938Z,5.50
2024-05-09T02:54:28.908Z,5.93
2024-05-09T02:57:01.984Z,5.60
2024-05-09T02:59:29.815Z,5.20
2024-05-09T03:02:00.383Z,5.43
2024-05-09T03:04:28.285Z,5.60
2024-05-09T03:06:58.712Z,5.70
2024-05-09T03:09:26.604Z,5.00
2024-05-09T03:11:57.193Z,5.77
2024-05-09T03:14:28.487Z,6.23
2024-05-09T03:16:59.101Z,5.33
2024-05-09T03:19:26.952Z,5.50
2024-05-09T03:21:57.416Z,3.40
2024-05-09T03:24:25.205Z,4.67
2024-05-09T03:26:55.600Z,4.60
2024-05-09T03:29:23.387Z,6.47
2024-05-09T03:31:56.572Z,4.53
2024-05-09T03:34:24.443Z,4.20
2024-05-09T03:36:54.980Z,4.37
2024-05-09T03:39:25.394Z,4.00
2024-05-09T03:41:55.799Z,4.83
2024-05-09T03:44:26.319Z,4.57
2024-05-09T03:46:56.886Z,4.50
2024-05-09T03:49:27.421Z,4.30
2024-05-09T03:51:55.346Z,4.77
2024-05-09T03:54:25.733Z,4.87
2024-05-09T03:56:54.384Z,4.43
2024-05-09T03:59:24.861Z,4.60
2024-05-09T04:01:55.504Z,4.53
2024-05-09T04:04:26.013Z,4.77
2024-05-09T04:06:53.830Z,4.93
2024-05-09T04:09:24.283Z,4.77
2024-05-09T04:11:52.309Z,4.57
2024-05-09T04:14:22.964Z,4.93
2024-05-09T04:16:51.980Z,4.53
2024-05-09T04:19:25.142Z,5.17
2024-05-09T04:21:53.008Z,4.00
2024-05-09T04:24:23.434Z,3.90
2024-05-09T04:26:51.188Z,4.27
2024-05-09T04:29:21.654Z,5.23
2024-05-09T04:31:49.508Z,7.30
2024-05-09T04:34:20.069Z,4.00
2024-05-09T04:36:50.706Z,4.30
2024-05-09T04:39:21.114Z,3.87
2024-05-09T04:41:48.915Z,3.70
2024-05-09T04:44:19.415Z,3.83
2024-05-09T04:46:48.060Z,3.90
2024-05-09T04:49:18.770Z,4.33
2024-05-09T04:51:49.281Z,5.37
2024-05-09T04:54:30.001Z,4.90
2024-05-09T04:57:03.886Z,3.60
2024-05-09T04:59:34.489Z,3.73
2024-05-09T05:02:02.929Z,3.63
2024-05-09T05:04:33.651Z,3.93
2024-05-09T05:07:04.261Z,3.80
2024-05-09T05:09:34.887Z,3.70
2024-05-09T05:12:23.142Z,3.70
2024-05-09T05:14:53.665Z,4.07
2024-05-09T05:17:24.214Z,4.30
2024-05-09T05:19:52.312Z,5.93
2024-05-09T05:22:25.404Z,4.67
2024-05-09T05:24:53.216Z,4.60
2024-05-09T05:27:23.588Z,4.23
2024-05-09T05:29:51.399Z,4.77
2024-05-09T05:32:22.077Z,4.50
2024-05-09T05:34:50.067Z,4.80
2024-05-09T05:37:20.493Z,4.10
2024-05-09T05:39:50.893Z,5.30
2024-05-09T05:42:21.314Z,4.50
2024-05-09T05:44:49.162Z,4.23
2024-05-09T05:47:19.810Z,3.73
2024-05-09T05:49:47.684Z,4.03
2024-05-09T05:52:18.330Z,4.83
2024-05-09T05:54:48.511Z,3.97
2024-05-09T05:57:22.045Z,4.73
2024-05-09T05:59:52.412Z,4.00
2024-05-09T06:02:20.539Z,3.80
2024-05-09T06:04:51.045Z,4.10
2024-05-09T06:07:18.919Z,4.90
2024-05-09T06:09:50.468Z,3.77
2024-05-09T06:12:21.054Z,3.83
2024-05-09T06:14:51.558Z,3.63
2024-05-09T06:17:19.515Z,4.33
2024-05-09T06:19:50.160Z,4.13
2024-05-09T06:22:18.002Z,3.70
2024-05-09T06:24:48.514Z,4.27
2024-05-09T06:27:16.314Z,3.43
2024-05-09T06:29:49.514Z,3.53
2024-05-09T06:32:17.348Z,3.50
2024-05-09T06:34:49.173Z,3.90
2024-05-09T06:37:17.954Z,3.90
2024-05-09T06:39:49.104Z,3.60
2024-05-09T06:42:16.884Z,3.40
2024-05-09T06:44:49.927Z,3.63
2024-05-09T06:47:19.499Z,3.97
2024-05-09T06:49:50.047Z,3.50
2024-05-09T06:52:19.424Z,3.47
2024-05-09T06:54:49.887Z,3.80
2024-05-09T06:57:17.702Z,3.90
2024-05-09T06:59:50.722Z,4.33
2024-05-09T07:02:18.683Z,3.20
2024-05-09T07:04:49.364Z,4.93
2024-05-09T07:07:17.356Z,3.70
2024-05-09T07:09:47.784Z,4.20
2024-05-09T07:12:15.819Z,4.00
2024-05-09T07:14:48.967Z,4.13
2024-05-09T07:17:17.377Z,5.10
2024-05-09T07:19:48.211Z,4.50
2024-05-09T07:22:16.183Z,4.40
2024-05-09T07:24:46.618Z,5.43
2024-05-09T07:27:14.616Z,4.30
2024-05-09T07:29:45.181Z,4.50
2024-05-09T07:32:15.742Z,4.10
2024-05-09T07:34:46.281Z,3.93
2024-05-09T07:37:14.580Z,4.73
2024-05-09T07:39:45.173Z,4.30
2024-05-09T07:42:13.027Z,4.47
2024-05-09T07:44:43.478Z,5.00
2024-05-09T07:48:27.533Z,4.23
2024-05-09T07:52:00.971Z,4.00
2024-05-09T07:53:35.395Z,4.63
2024-05-09T07:55:43.003Z,4.90
2024-05-09T07:58:10.958Z,5.17
2024-05-09T08:00:41.635Z,4.40
2024-05-09T08:03:10.393Z,3.63
2024-05-09T08:05:43.576Z,4.30
2024-05-09T08:08:11.679Z,4.00
2024-05-09T08:10:42.218Z,4.40
2024-05-09T08:13:10.239Z,4.10
2024-05-09T08:15:40.898Z,4.03
2024-05-09T08:18:09.514Z,4.47
2024-05-09T08:20:44.476Z,6.00
2024-05-09T08:23:12.313Z,4.63
2024-05-09T08:25:45.027Z,3.53
2024-05-09T08:28:13.162Z,3.50
2024-05-09T08:30:44.302Z,3.93
2024-05-09T08:33:15.118Z,3.13
2024-05-09T08:35:45.674Z,3.53
2024-05-09T08:38:16.175Z,4.00
2024-05-09T08:40:44.238Z,3.13
2024-05-09T08:43:15.049Z,3.50
2024-05-09T08:45:44.730Z,3.63
2024-05-09T08:48:16.916Z,3.13
2024-05-09T08:50:51.088Z,4.00
2024-05-09T08:53:19.452Z,3.10
2024-05-09T08:55:52.284Z,3.23
2024-05-09T08:58:20.444Z,3.10
2024-05-09T09:00:52.264Z,2.70
2024-05-09T09:03:24.534Z,2.87
2024-05-09T09:06:02.122Z,3.10
2024-05-09T09:08:29.892Z,2.77
2024-05-09T09:11:01.710Z,2.73
2024-05-09T09:13:29.897Z,3.13
2024-05-09T09:16:01.321Z,2.77
2024-05-09T09:18:30.407Z,2.90
2024-05-09T09:21:03.864Z,3.63
2024-05-09T09:23:31.667Z,3.80
2024-05-09T11:43:07.685Z,2.77
2024-05-09T11:45:36.103Z,2.80
2024-05-09T11:48:07.673Z,2.83
2024-05-09T11:50:36.321Z,2.77
2024-05-09T11:53:07.058Z,2.37
2024-05-09T11:55:36.594Z,3.20
2024-05-09T11:58:12.761Z,2.53
2024-05-09T12:00:40.856Z,2.60
2024-05-09T12:03:11.405Z,2.50
2024-05-09T12:05:39.424Z,2.87
2024-05-09T12:08:10.835Z,2.33
2024-05-09T12:10:39.109Z,2.30
2024-05-09T12:13:12.774Z,2.40
2024-05-09T12:15:40.886Z,2.20
2024-05-09T12:18:11.462Z,3.07
2024-05-09T12:20:40.445Z,2.10
2024-05-09T12:23:11.614Z,3.20
2024-05-09T12:25:40.481Z,2.70
2024-05-09T12:28:14.311Z,2.50
2024-05-09T12:30:42.259Z,2.60
2024-05-09T12:33:14.279Z,2.77
2024-05-09T12:35:46.478Z,2.50
2024-05-09T12:38:18.035Z,2.20
2024-05-09T12:40:45.908Z,2.60
2024-05-09T12:43:19.834Z,2.67
2024-05-09T12:45:47.834Z,4.23
2024-05-09T12:48:18.445Z,2.00
2024-05-09T12:50:46.452Z,2.83
2024-05-09T12:53:17.047Z,3.47
2024-05-09T12:55:53.263Z,2.53
2024-05-09T12:58:30.259Z,2.60
2024-05-09T13:00:58.338Z,2.47
2024-05-09T13:03:28.965Z,2.17
2024-05-09T13:05:57.315Z,2.33
2024-05-09T13:08:27.981Z,2.40
2024-05-09T13:10:56.033Z,2.60
2024-05-09T13:13:29.285Z,2.20
2024-05-09T13:15:57.150Z,2.63
2024-05-09T13:18:27.779Z,2.33
2024-05-09T13:20:55.693Z,2.83
2024-05-09T13:23:26.385Z,2.40
2024-05-09T13:25:54.375Z,2.27
2024-05-09T13:28:25.089Z,2.33
2024-05-09T13:30:55.636Z,2.30
2024-05-09T13:33:26.212Z,2.90
2024-05-09T13:35:54.317Z,2.53
2024-05-09T13:38:24.891Z,3.00
2024-05-09T13:40:52.974Z,2.33
2024-05-09T13:43:24.130Z,2.87
2024-05-09T13:45:56.365Z,2.60
2024-05-09T13:48:27.159Z,2.00
2024-05-09T13:50:55.210Z,2.10
2024-05-09T13:53:25.679Z,2.20
2024-05-09T13:55:53.525Z,2.23
2024-05-09T13:58:24.480Z,2.03
2024-05-09T14:00:55.065Z,2.33
2024-05-09T14:03:27.091Z,2.13
2024-05-09T14:05:55.178Z,2.10
2024-05-09T14:08:26.080Z,2.50
2024-05-09T14:10:54.246Z,2.23
2024-05-09T14:13:25.164Z,2.40
2024-05-09T14:15:55.906Z,2.17
2024-05-09T14:18:26.618Z,2.50
2024-05-09T14:20:54.534Z,2.90
2024-05-09T14:23:26.416Z,2.63
2024-05-09T14:25:54.270Z,2.67
2024-05-09T14:28:27.111Z,2.50
2024-05-09T14:30:57.704Z,2.20
2024-05-09T14:33:30.604Z,2.33
2024-05-09T14:35:58.576Z,2.43
2024-05-09T14:38:30.466Z,2.77
2024-05-09T14:40:59.442Z,2.40
2024-05-09T14:43:29.988Z,2.13
2024-05-09T14:46:00.603Z,1.97
2024-05-09T14:48:31.583Z,2.27
2024-05-09T14:50:59.504Z,2.00
2024-05-09T14:53:29.974Z,2.40
2024-05-09T14:55:58.077Z,2.00
2024-05-09T14:58:29.182Z,2.33
2024-05-09T15:00:59.879Z,2.37
2024-05-09T15:03:30.630Z,2.67
2024-05-09T15:05:59.336Z,2.90
2024-05-09T15:08:30.019Z,2.40
2024-05-09T15:10:57.989Z,2.43
2024-05-09T15:13:29.125Z,1.90
2024-05-09T15:15:59.749Z,2.50
2024-05-09T15:18:30.783Z,2.50
2024-05-09T15:20:58.967Z,2.10
2024-05-09T15:23:29.660Z,2.23
2024-05-09T15:25:57.652Z,2.30
2024-05-09T15:28:28.168Z,2.00
2024-05-09T15:30:56.093Z,2.07
2024-05-09T15:33:29.898Z,2.00
2024-05-09T15:35:57.855Z,1.77
2024-05-09T15:38:28.945Z,2.20
2024-05-09T15:41:00.324Z,1.90
2024-05-09T15:43:28.476Z,2.40
2024-05-09T15:45:59.063Z,2.00
2024-05-09T15:56:12.144Z,2.80
2024-05-09T16:01:26.850Z,2.03
2024-05-09T16:03:54.842Z,1.90
2024-05-09T16:06:25.912Z,2.27
2024-05-09T16:08:53.862Z,2.57
2024-05-09T16:11:24.307Z,3.03
2024-05-09T16:14:13.837Z,2.60
2024-05-09T16:16:47.031Z,3.13
2024-05-09T16:19:15.965Z,2.30
2024-05-09T16:21:46.566Z,2.03
2024-05-09T16:24:14.594Z,2.40
2024-05-09T16:26:46.109Z,2.93
2024-05-09T16:29:14.041Z,2.20
2024-05-09T16:31:47.313Z,2.10
2024-05-09T16:34:18.300Z,2.73
2024-05-09T16:36:46.403Z,2.50
2024-05-09T16:39:16.919Z,1.87
2024-05-09T16:41:44.887Z,2.17
2024-05-09T16:44:15.413Z,2.47
2024-05-09T16:46:45.896Z,2.60
2024-05-09T16:49:16.828Z,2.60
2024-05-09T16:51:44.936Z,2.63
2024-05-09T16:54:15.718Z,2.40
2024-05-09T16:56:43.711Z,1.77
2024-05-09T16:59:14.550Z,2.00
2024-05-09T17:01:45.246Z,2.70
2024-05-09T17:04:16.100Z,2.20
2024-05-09T17:06:44.257Z,2.40
2024-05-09T17:09:18.028Z,2.53
2024-05-09T17:11:47.329Z,2.10
2024-05-09T17:14:18.071Z,2.23
2024-05-09T17:16:51.168Z,2.70
2024-05-09T17:19:21.830Z,2.37
2024-05-09T17:21:49.825Z,2.33
2024-05-09T17:24:20.314Z,2.50
2024-05-09T17:26:48.657Z,2.37
2024-05-09T17:29:19.230Z,2.40
2024-05-09T17:31:49.705Z,2.30
2024-05-09T17:34:20.476Z,1.80
2024-05-09T17:36:48.418Z,2.17
2024-05-09T17:39:19.029Z,1.70
2024-05-09T17:41:46.830Z,1.93
2024-05-09T17:44:17.303Z,2.17
2024-05-09T17:46:45.166Z,2.40
2024-05-09T17:49:18.412Z,2.43
2024-05-09T17:51:52.867Z,2.23
2024-05-09T17:54:23.580Z,1.97
2024-05-09T17:56:51.465Z,2.13
2024-05-09T17:59:21.945Z,2.80
2024-05-09T18:01:49.999Z,2.27
2024-05-09T18:04:23.818Z,2.53
2024-05-09T18:06:51.714Z,2.50
2024-05-09T18:09:22.236Z,2.47
2024-05-09T18:11:50.249Z,2.37
2024-05-09T18:14:20.714Z,2.43
2024-05-09T18:16:48.550Z,2.20
2024-05-09T18:19:19.204Z,2.43
2024-05-09T18:21:49.787Z,2.40
2024-05-09T18:24:22.074Z,2.13
2024-05-09T18:26:50.042Z,2.23
2024-05-09T18:29:22.275Z,2.70
2024-05-09T18:31:50.278Z,3.30
2024-05-09T18:34:20.853Z,3.00
2024-05-09T18:36:51.650Z,2.90
2024-05-09T18:39:22.197Z,2.90
2024-05-09T18:41:50.081Z,3.17
2024-05-09T18:44:20.828Z,3.07
2024-05-09T18:46:48.680Z,2.67
2024-05-09T18:49:19.463Z,2.67
2024-05-09T18:51:47.594Z,3.00
2024-05-09T18:54:20.767Z,3.10
2024-05-09T18:56:48.620Z,2.70
2024-05-09T18:59:19.247Z,2.93
2024-05-09T19:01:47.109Z,3.60
2024-05-09T19:04:18.671Z,3.50
2024-05-09T19:06:47.133Z,3.50
2024-05-09T19:09:20.243Z,3.77
2024-05-09T19:11:48.145Z,3.90
2024-05-09T19:14:19.365Z,2.97
2024-05-09T19:16:47.296Z,3.47
2024-05-09T19:19:17.985Z,3.70
2024-05-09T19:21:45.895Z,3.03
2024-05-09T19:24:19.154Z,3.90
2024-05-09T19:26:46.958Z,4.00
2024-05-09T19:29:17.440Z,4.20
2024-05-09T19:31:47.908Z,4.97
2024-05-09T19:34:16.208Z,3.33
2024-05-09T19:36:46.742Z,3.77
2024-05-09T19:39:17.394Z,3.40
2024-05-09T19:41:47.827Z,2.73
2024-05-09T19:44:15.763Z,3.20
2024-05-09T19:46:46.279Z,3.33
2024-05-09T19:49:14.348Z,3.53
2024-05-09T19:51:44.862Z,3.60
2024-05-09T19:54:12.730Z,3.63
2024-05-09T19:56:46.395Z,3.73
2024-05-09T19:59:14.270Z,3.17
2024-05-09T20:01:44.950Z,3.87
2024-05-09T20:04:13.071Z,3.70
2024-05-09T20:06:44.540Z,4.87
2024-05-09T20:09:12.349Z,3.27
2024-05-09T20:11:45.466Z,3.63
2024-05-09T20:14:13.362Z,3.90
2024-05-09T20:16:43.843Z,4.07
2024-05-09T20:19:11.821Z,3.00
2024-05-09T20:21:45.390Z,3.40
2024-05-09T20:24:13.231Z,3.73
2024-05-09T20:26:46.350Z,4.00
2024-05-09T20:29:14.246Z,4.07
2024-05-09T20:31:45.018Z,3.50
2024-05-09T20:34:15.545Z,3.83
2024-05-09T20:36:43.410Z,2.90
2024-05-09T20:39:13.982Z,2.83
2024-05-09T20:41:44.798Z,2.90
2024-05-09T20:44:15.431Z,2.80
2024-05-09T20:46:43.281Z,2.83
2024-05-09T20:49:13.874Z,2.60
2024-05-09T20:51:41.875Z,3.33
2024-05-09T20:54:12.419Z,2.83
2024-05-09T20:56:40.283Z,3.00
2024-05-09T20:59:14.010Z,2.70
2024-05-09T21:01:47.120Z,3.00
2024-05-09T21:04:19.234Z,2.90
2024-05-09T21:06:47.326Z,3.10
2024-05-09T21:09:18.014Z,3.20
2024-05-09T21:11:45.948Z,4.37
2024-05-09T21:14:19.056Z,3.30
2024-05-09T21:16:47.104Z,3.83
2024-05-09T21:19:17.708Z,3.33
2024-05-09T21:21:45.872Z,3.10
2024-05-09T21:24:16.314Z,3.10
2024-05-09T21:26:44.589Z,2.90
2024-05-09T21:29:15.022Z,3.70
2024-05-09T21:31:45.576Z,4.40
2024-05-09T21:34:16.136Z,3.60
2024-05-09T21:36:44.288Z,3.00
2024-05-09T21:39:14.809Z,4.53
2024-05-09T21:41:42.784Z,4.77
2024-05-09T21:44:13.378Z,5.43
2024-05-09T21:46:41.340Z,4.70
2024-05-09T21:49:17.284Z,5.13
2024-05-09T21:51:45.424Z,4.50
2024-05-09T21:54:15.886Z,3.20
2024-05-09T21:56:44.022Z,3.40
2024-05-09T21:59:14.516Z,4.10
2024-05-09T22:01:42.411Z,4.00
2024-05-09T22:04:15.624Z,3.90
2024-05-09T22:06:43.710Z,4.60
2024-05-09T22:09:14.406Z,3.93
2024-05-09T22:11:42.349Z,3.80
2024-05-09T22:14:13.096Z,3.93
2024-05-09T22:16:41.171Z,4.70
2024-05-09T22:19:14.339Z,4.17
2024-05-09T22:21:42.249Z,4.27
2024-05-09T22:24:12.716Z,3.80
2024-05-09T22:26:40.596Z,3.60
2024-05-09T22:29:11.022Z,3.90
2024-05-09T22:31:38.849Z,3.73
2024-05-09T22:34:09.440Z,3.13
2024-05-09T22:36:40.002Z,3.00
2024-05-09T22:39:10.532Z,3.00
2024-05-09T22:41:40.317Z,2.70
2024-05-09T22:44:10.759Z,2.57
2024-05-09T22:46:38.566Z,3.53
2024-05-09T22:49:09.558Z,3.17
2024-05-09T22:51:40.066Z,3.27
2024-05-09T22:54:10.535Z,2.90
2024-05-09T22:56:38.330Z,2.80
2024-05-09T22:59:09.778Z,2.27
2024-05-09T23:01:37.711Z,3.00
2024-05-09T23:04:08.357Z,2.97
2024-05-09T23:06:40.043Z,2.77
2024-05-09T23:09:12.126Z,3.33
2024-05-09T23:11:41.551Z,2.80
2024-05-09T23:14:11.943Z,2.67
2024-05-09T23:16:39.782Z,3.17
2024-05-09T23:19:10.244Z,2.83
2024-05-09T23:21:41.888Z,2.60
2024-05-09T23:24:12.389Z,2.20
2024-05-09T23:26:43.228Z,2.70
2024-05-09T23:29:13.705Z,2.27
2024-05-09T23:31:41.663Z,3.00
2024-05-09T23:34:12.242Z,2.37
2024-05-09T23:36:42.877Z,3.50
2024-05-09T23:39:13.311Z,2.57
2024-05-09T23:41:41.184Z,2.80
2024-05-09T23:44:12.126Z,2.43
2024-05-09T23:46:42.666Z,2.80
2024-05-09T23:49:11.289Z,2.87
2024-05-09T23:51:44.602Z,2.27
2024-05-09T23:54:12.425Z,2.30
2024-05-09T23:56:42.833Z,2.10
2024-05-09T23:59:10.764Z,2.67
